createdAt,value
2023-04-16T00:01:11.027Z,9.69
2023-04-16T00:03:39.086Z,9.70
2023-04-16T00:06:07.207Z,9.70
2023-04-16T00:08:35.787Z,9.69
2023-04-16T00:11:03.752Z,9.61
2023-04-16T00:13:31.671Z,9.64
2023-04-16T00:16:01.112Z,9.60
2023-04-16T00:18:29.067Z,9.57
2023-04-16T00:20:56.985Z,9.65
2023-04-16T00:23:25.689Z,9.60
2023-04-16T00:25:54.052Z,9.57
2023-04-16T00:28:22.191Z,9.73
2023-04-16T00:30:50.321Z,10.12
2023-04-16T00:33:19.807Z,9.69
2023-04-16T00:35:48.117Z,9.65
2023-04-16T00:38:16.107Z,9.67
2023-04-16T00:40:44.063Z,9.48
2023-04-16T00:43:12.035Z,9.57
2023-04-16T00:45:40.234Z,9.52
2023-04-16T00:48:08.179Z,9.70
2023-04-16T00:50:37.571Z,9.59
2023-04-16T00:53:06.417Z,9.57
2023-04-16T00:55:34.404Z,9.72
2023-04-16T00:58:02.393Z,9.65
2023-04-16T01:00:30.659Z,9.80
2023-04-16T01:03:00.015Z,9.61
2023-04-16T01:05:28.160Z,9.58
2023-04-16T01:08:44.187Z,9.65
2023-04-16T01:11:27.297Z,9.71
2023-04-16T01:14:04.904Z,9.84
2023-04-16T01:16:36.005Z,9.72
2023-04-16T01:19:04.167Z,9.69
2023-04-16T01:21:36.148Z,9.76
2023-04-16T01:24:04.997Z,9.82
2023-04-16T01:30:29.369Z,9.88
2023-04-16T01:33:48.611Z,9.76
2023-04-16T01:36:16.970Z,9.66
2023-04-16T01:42:38.644Z,9.62
2023-04-16T01:45:07.998Z,9.62
2023-04-16T01:47:35.981Z,9.58
2023-04-16T01:54:34.192Z,9.63
2023-04-16T01:57:03.171Z,9.57
2023-04-16T01:59:31.387Z,9.57
2023-04-16T02:02:06.725Z,9.63
2023-04-16T02:04:34.832Z,9.60
2023-04-16T02:07:02.718Z,9.56
2023-04-16T02:09:31.152Z,9.54
2023-04-16T02:12:01.987Z,9.52
2023-04-16T02:14:30.443Z,9.54
2023-04-16T02:16:58.593Z,9.47
2023-04-16T02:19:40.831Z,9.47
2023-04-16T02:22:10.232Z,9.45
2023-04-16T02:24:38.224Z,9.45
2023-04-16T02:27:11.110Z,9.41
2023-04-16T02:29:39.622Z,9.46
2023-04-16T02:32:15.039Z,9.55
2023-04-16T02:34:45.922Z,9.50
2023-04-16T02:37:15.547Z,9.42
2023-04-16T02:39:43.939Z,9.49
2023-04-16T02:42:13.307Z,9.61
2023-04-16T02:44:41.421Z,9.59
2023-04-16T02:47:09.480Z,9.55
2023-04-16T02:49:37.516Z,9.35
2023-04-16T02:52:05.808Z,9.29
2023-04-16T02:54:33.750Z,9.35
2023-04-16T02:57:02.314Z,9.41
2023-04-16T02:59:31.672Z,9.32
2023-04-16T03:01:59.784Z,9.28
2023-04-16T03:04:28.034Z,9.22
2023-04-16T03:06:55.998Z,9.28
2023-04-16T03:09:24.001Z,9.25
2023-04-16T03:11:51.900Z,9.31
2023-04-16T03:14:19.834Z,9.28
2023-04-16T03:16:49.085Z,9.21
2023-04-16T03:19:17.063Z,9.15
2023-04-16T03:21:44.946Z,9.21
2023-04-16T03:24:13.371Z,9.19
2023-04-16T03:26:41.343Z,9.14
2023-04-16T03:29:10.263Z,9.05
2023-04-16T03:31:38.277Z,8.99
2023-04-16T03:34:07.734Z,9.10
2023-04-16T03:36:36.339Z,9.09
2023-04-16T03:39:04.547Z,9.10
2023-04-16T03:41:32.514Z,9.09
2023-04-16T03:44:00.821Z,9.19
2023-04-16T03:46:28.764Z,9.06
2023-04-16T03:48:56.655Z,9.01
2023-04-16T03:51:26.426Z,9.00
2023-04-16T03:53:54.430Z,9.13
2023-04-16T03:56:22.790Z,9.06
2023-04-16T03:58:52.712Z,9.01
2023-04-16T04:01:20.676Z,8.96
2023-04-16T04:03:48.798Z,8.99
2023-04-16T04:06:17.227Z,9.04
2023-04-16T04:08:46.589Z,8.96
2023-04-16T04:11:16.210Z,8.97
2023-04-16T04:13:48.244Z,9.09
2023-04-16T04:16:16.394Z,9.07
2023-04-16T04:18:47.436Z,8.97
2023-04-16T04:21:15.378Z,9.00
2023-04-16T04:23:43.711Z,8.97
2023-04-16T04:26:13.919Z,8.99
2023-04-16T04:28:42.180Z,8.97
2023-04-16T04:31:10.248Z,8.98
2023-04-16T04:33:38.187Z,9.13
2023-04-16T04:36:06.724Z,9.07
2023-04-16T04:38:36.031Z,9.02
2023-04-16T04:41:04.889Z,8.98
2023-04-16T04:43:37.844Z,8.93
2023-04-16T04:46:07.097Z,8.91
2023-04-16T04:48:35.297Z,9.00
2023-04-16T04:51:05.195Z,8.99
2023-04-16T04:53:33.510Z,8.92
2023-04-16T04:56:09.216Z,8.89
2023-04-16T04:58:41.541Z,8.92
2023-04-16T05:01:09.531Z,8.86
2023-04-16T05:03:37.587Z,8.80
2023-04-16T05:06:06.074Z,8.88
2023-04-16T05:08:34.022Z,8.86
2023-04-16T05:11:04.566Z,8.90
2023-04-16T05:13:32.436Z,8.81
2023-04-16T05:16:01.663Z,8.88
2023-04-16T05:18:29.582Z,8.76
2023-04-16T05:20:57.413Z,8.89
2023-04-16T05:23:25.303Z,8.84
2023-04-16T05:25:53.183Z,8.76
2023-04-16T05:28:21.071Z,8.89
2023-04-16T05:30:48.988Z,8.74
2023-04-16T05:33:18.521Z,8.85
2023-04-16T05:35:46.517Z,8.85
2023-04-16T05:38:14.455Z,8.81
2023-04-16T05:40:42.294Z,8.69
2023-04-16T05:43:10.167Z,8.74
2023-04-16T05:45:40.880Z,8.73
2023-04-16T05:48:09.358Z,8.65
2023-04-16T05:50:38.801Z,8.77
2023-04-16T05:53:08.077Z,8.75
2023-04-16T05:55:36.778Z,8.75
2023-04-16T05:58:05.116Z,8.79
2023-04-16T06:00:33.516Z,8.80
2023-04-16T06:03:01.815Z,8.94
2023-04-16T06:05:30.232Z,8.96
2023-04-16T06:07:59.633Z,8.93
2023-04-16T06:10:28.066Z,8.84
2023-04-16T06:12:56.190Z,8.90
2023-04-16T06:15:24.040Z,8.90
2023-04-16T06:17:52.014Z,8.80
2023-04-16T06:20:22.913Z,8.91
2023-04-16T06:22:50.836Z,8.90
2023-04-16T06:25:20.187Z,8.96
2023-04-16T06:27:48.214Z,8.95
2023-04-16T06:30:17.019Z,8.98
2023-04-16T06:32:46.461Z,9.05
2023-04-16T06:35:14.523Z,8.98
2023-04-16T06:37:42.469Z,8.96
2023-04-16T06:40:11.181Z,9.03
2023-04-16T06:42:40.986Z,9.10
2023-04-16T06:45:10.269Z,9.06
2023-04-16T06:47:38.187Z,9.11
2023-04-16T06:50:07.012Z,9.11
2023-04-16T06:52:35.005Z,9.06
2023-04-16T06:55:03.273Z,9.19
2023-04-16T06:57:31.182Z,9.27
2023-04-16T07:00:00.448Z,9.24
2023-04-16T07:02:30.413Z,9.12
2023-04-16T07:04:58.306Z,8.93
2023-04-16T07:07:26.186Z,8.99
2023-04-16T07:09:54.110Z,9.00
2023-04-16T07:12:22.879Z,9.10
2023-04-16T07:14:51.204Z,9.13
2023-04-16T07:17:20.458Z,9.26
2023-04-16T07:19:48.319Z,9.32
2023-04-16T07:22:16.530Z,9.06
2023-04-16T07:24:44.438Z,9.20
2023-04-16T07:27:13.040Z,9.32
2023-04-16T07:29:41.085Z,9.41
2023-04-16T07:32:10.208Z,9.15
2023-04-16T07:34:39.517Z,9.04
2023-04-16T07:37:07.422Z,9.15
2023-04-16T07:39:35.392Z,9.22
2023-04-16T07:42:03.409Z,9.12
2023-04-16T07:44:31.296Z,9.27
2023-04-16T07:46:59.194Z,9.26
2023-04-16T07:49:27.083Z,9.30
2023-04-16T07:51:56.367Z,9.20
2023-04-16T07:54:24.258Z,9.25
2023-04-16T07:56:52.152Z,9.21
2023-04-16T07:59:23.514Z,9.30
2023-04-16T08:01:54.206Z,9.43
2023-04-16T08:04:25.401Z,9.19
2023-04-16T08:06:54.365Z,9.29
2023-04-16T08:09:24.945Z,9.29
2023-04-16T08:11:52.871Z,9.15
2023-04-16T08:14:21.404Z,9.09
2023-04-16T08:16:49.324Z,9.19
2023-04-16T08:19:17.248Z,9.22
2023-04-16T08:21:45.378Z,9.10
2023-04-16T08:24:13.319Z,9.23
2023-04-16T08:26:42.604Z,9.28
2023-04-16T08:29:10.845Z,9.21
2023-04-16T08:31:42.712Z,9.30
2023-04-16T08:34:12.232Z,9.45
2023-04-16T08:36:41.044Z,9.40
2023-04-16T08:39:09.570Z,9.29
2023-04-16T08:41:39.531Z,9.30
2023-04-16T08:44:13.046Z,9.47
2023-04-16T08:46:45.269Z,9.43
2023-04-16T08:49:19.936Z,9.18
2023-04-16T08:51:55.302Z,9.13
2023-04-16T08:54:33.275Z,9.20
2023-04-16T08:57:06.994Z,9.40
2023-04-16T08:59:37.567Z,9.14
2023-04-16T09:02:07.394Z,9.35
2023-04-16T09:04:37.729Z,9.23
2023-04-16T09:07:09.882Z,9.28
2023-04-16T09:09:39.828Z,9.11
2023-04-16T09:12:11.190Z,9.04
2023-04-16T09:14:41.905Z,9.19
2023-04-16T09:17:11.661Z,9.14
2023-04-16T09:19:39.603Z,9.44
2023-04-16T09:22:19.123Z,9.68
2023-04-16T09:30:11.867Z,9.68
2023-04-16T09:32:42.430Z,9.61
2023-04-16T09:35:10.791Z,9.54
2023-04-16T09:37:40.951Z,9.82
2023-04-16T09:40:09.878Z,9.67
2023-04-16T09:42:39.336Z,9.69
2023-04-16T09:45:14.823Z,9.73
2023-04-16T09:47:46.747Z,9.66
2023-04-16T09:50:19.330Z,9.73
2023-04-16T09:52:51.548Z,9.63
2023-04-16T09:55:24.105Z,9.76
2023-04-16T09:58:00.224Z,9.68
2023-04-16T10:00:30.256Z,9.70
2023-04-16T10:03:05.673Z,9.72
2023-04-16T10:05:38.620Z,9.75
2023-04-16T10:08:13.239Z,9.83
2023-04-16T10:10:42.293Z,9.91
2023-04-16T10:13:12.574Z,9.93
2023-04-16T10:15:49.568Z,9.90
2023-04-16T10:18:18.498Z,9.86
2023-04-16T10:20:46.886Z,9.91
2023-04-16T10:23:17.590Z,10.08
2023-04-16T10:30:16.615Z,10.05
2023-04-16T10:32:46.948Z,10.07
2023-04-16T10:47:31.687Z,10.40
2023-04-16T10:50:21.698Z,10.37
2023-04-16T10:52:49.730Z,10.21
2023-04-16T10:55:18.573Z,10.27
2023-04-16T10:57:50.775Z,10.19
2023-04-16T11:00:24.137Z,10.24
2023-04-16T11:02:54.867Z,10.16
2023-04-16T11:05:24.891Z,10.06
2023-04-16T11:07:52.758Z,9.98
2023-04-16T11:10:20.675Z,10.09
2023-04-16T11:12:49.754Z,10.35
2023-04-16T11:15:26.383Z,10.35
2023-04-16T11:17:54.504Z,10.27
2023-04-16T11:20:26.370Z,10.38
2023-04-16T11:22:58.559Z,10.43
2023-04-16T11:25:27.697Z,10.44
2023-04-16T11:27:58.925Z,10.49
2023-04-16T11:30:33.831Z,10.52
2023-04-16T11:33:03.846Z,10.56
2023-04-16T11:35:33.452Z,10.36
2023-04-16T11:41:02.981Z,10.53
2023-04-16T11:43:35.119Z,10.41
2023-04-16T11:48:12.901Z,10.35
2023-04-16T12:26:02.363Z,10.64
2023-04-16T12:43:29.905Z,10.31
2023-04-16T12:45:59.468Z,10.19
2023-04-16T12:48:27.501Z,10.31
2023-04-16T12:50:55.868Z,10.16
2023-04-16T12:57:59.248Z,10.21
2023-04-16T13:00:28.371Z,10.20
2023-04-16T13:02:57.730Z,10.19
2023-04-16T13:05:33.904Z,10.13
2023-04-16T13:08:03.797Z,10.06
2023-04-16T13:10:36.902Z,9.95
2023-04-16T13:13:07.552Z,10.00
2023-04-16T13:15:40.184Z,9.88
2023-04-16T13:18:09.543Z,9.91
2023-04-16T13:20:37.509Z,9.73
2023-04-16T13:23:05.499Z,9.83
2023-04-16T13:25:33.495Z,9.80
2023-04-16T13:28:01.463Z,9.90
2023-04-16T13:30:30.025Z,9.86
2023-04-16T13:32:58.130Z,10.04
2023-04-16T13:35:27.636Z,10.12
2023-04-16T13:37:55.785Z,10.19
2023-04-16T13:40:23.722Z,10.27
2023-04-16T13:42:52.216Z,10.31
2023-04-16T13:45:21.016Z,10.31
2023-04-16T13:47:49.370Z,10.29
2023-04-16T13:50:17.518Z,10.29
2023-04-16T13:52:46.934Z,10.51
2023-04-16T13:55:17.816Z,10.37
2023-04-16T13:57:47.216Z,10.51
2023-04-16T14:00:16.730Z,10.63
2023-04-16T14:02:45.976Z,10.81
2023-04-16T14:05:14.095Z,10.93
2023-04-16T14:07:42.061Z,11.04
2023-04-16T14:10:12.000Z,11.01
2023-04-16T14:12:40.019Z,11.26
2023-04-16T14:15:09.607Z,11.28
2023-04-16T14:17:38.033Z,11.29
2023-04-16T14:20:06.825Z,11.36
2023-04-16T14:22:34.848Z,11.27
2023-04-16T14:25:03.036Z,11.36
2023-04-16T14:27:32.614Z,11.35
2023-04-16T14:30:00.638Z,11.32
2023-04-16T14:32:28.729Z,11.25
2023-04-16T14:34:59.174Z,11.26
2023-04-16T14:37:27.288Z,11.04
2023-04-16T14:39:55.393Z,10.96
2023-04-16T14:42:23.473Z,10.93
2023-04-16T14:44:52.819Z,10.75
2023-04-16T14:47:20.783Z,10.70
2023-04-16T14:49:48.723Z,10.72
2023-04-16T14:52:18.042Z,10.69
2023-04-16T14:54:47.711Z,10.39
2023-04-16T14:57:17.218Z,10.44
2023-04-16T14:59:45.335Z,10.40
2023-04-16T15:02:14.891Z,10.38
2023-04-16T15:04:42.978Z,10.26
2023-04-16T15:07:11.612Z,10.14
2023-04-16T15:09:39.608Z,10.08
2023-04-16T15:12:07.687Z,10.04
2023-04-16T15:14:35.680Z,9.95
2023-04-16T15:17:03.975Z,10.12
2023-04-16T15:19:33.280Z,10.09
2023-04-16T15:22:01.405Z,10.15
2023-04-16T15:24:29.383Z,10.09
2023-04-16T15:26:57.313Z,10.07
2023-04-16T15:29:28.053Z,10.15
2023-04-16T15:31:56.004Z,10.00
2023-04-16T15:34:24.076Z,10.07
2023-04-16T15:36:53.542Z,10.01
2023-04-16T15:39:21.935Z,10.04
2023-04-16T15:42:00.647Z,10.03
2023-04-16T15:44:31.375Z,10.03
2023-04-16T15:47:00.127Z,9.97
2023-04-16T15:49:29.982Z,9.92
2023-04-16T15:51:59.997Z,9.90
2023-04-16T15:54:28.157Z,9.98
2023-04-16T15:56:56.558Z,9.94
2023-04-16T15:59:24.656Z,9.92
2023-04-16T16:01:52.817Z,9.89
2023-04-16T16:04:22.697Z,9.95
2023-04-16T16:06:51.689Z,9.98
2023-04-16T16:09:26.181Z,10.04
2023-04-16T16:12:04.540Z,10.17
2023-04-16T16:14:33.735Z,10.12
2023-04-16T16:17:01.748Z,10.08
2023-04-16T16:19:29.851Z,10.09
2023-04-16T16:21:57.881Z,10.08
2023-04-16T16:24:28.089Z,10.02
2023-04-16T16:26:56.496Z,9.92
2023-04-16T16:29:25.331Z,10.00
2023-04-16T16:31:56.756Z,9.90
2023-04-16T16:34:24.747Z,9.86
2023-04-16T16:36:52.749Z,9.87
2023-04-16T16:39:25.228Z,9.82
2023-04-16T16:41:57.699Z,9.81
2023-04-16T16:44:25.980Z,9.79
2023-04-16T16:46:54.343Z,9.74
2023-04-16T16:49:24.680Z,9.67
2023-04-16T16:51:52.649Z,9.64
2023-04-16T16:54:20.801Z,9.66
2023-04-16T16:56:58.901Z,9.57
2023-04-16T16:59:26.777Z,9.60
2023-04-16T17:01:54.740Z,9.58
2023-04-16T17:04:22.931Z,9.35
2023-04-16T17:06:50.992Z,9.56
2023-04-16T17:09:19.044Z,9.39
2023-04-16T17:11:47.025Z,9.45
2023-04-16T17:14:16.310Z,9.35
2023-04-16T17:16:46.418Z,9.37
2023-04-16T17:19:15.356Z,9.31
2023-04-16T17:21:43.292Z,9.26
2023-04-16T17:24:11.373Z,9.25
2023-04-16T17:26:40.900Z,9.19
2023-04-16T17:29:08.994Z,9.31
2023-04-16T17:31:38.576Z,9.27
2023-04-16T17:34:07.772Z,9.19
2023-04-16T17:36:36.789Z,9.17
2023-04-16T17:39:06.622Z,9.10
2023-04-16T17:41:34.713Z,9.11
2023-04-16T17:44:04.986Z,9.14
2023-04-16T17:46:33.073Z,9.04
2023-04-16T17:49:02.632Z,9.09
2023-04-16T17:51:31.055Z,9.19
2023-04-16T17:53:58.980Z,9.03
2023-04-16T17:56:27.207Z,9.03
2023-04-16T17:58:55.252Z,9.01
2023-04-16T18:01:25.972Z,9.06
2023-04-16T18:03:54.765Z,8.99
2023-04-16T18:06:24.229Z,8.98
2023-04-16T18:08:52.489Z,8.97
2023-04-16T18:11:21.111Z,8.95
2023-04-16T18:13:53.494Z,8.95
2023-04-16T18:16:22.371Z,8.92
2023-04-16T18:18:50.598Z,8.92
2023-04-16T18:21:18.509Z,8.80
2023-04-16T18:23:47.823Z,8.88
2023-04-16T18:26:18.622Z,8.85
2023-04-16T18:28:49.150Z,8.82
2023-04-16T18:31:20.889Z,8.83
2023-04-16T18:33:57.584Z,8.87
2023-04-16T18:36:26.751Z,8.81
2023-04-16T18:39:02.163Z,8.87
2023-04-16T18:41:31.275Z,8.93
2023-04-16T18:43:59.437Z,8.88
2023-04-16T18:46:27.907Z,8.81
2023-04-16T18:48:56.108Z,8.85
2023-04-16T18:51:24.184Z,8.83
2023-04-16T18:53:52.156Z,8.89
2023-04-16T18:56:21.676Z,8.85
2023-04-16T18:58:49.744Z,8.77
2023-04-16T19:01:19.814Z,8.85
2023-04-16T19:03:48.067Z,8.80
2023-04-16T19:06:16.107Z,8.82
2023-04-16T19:08:44.168Z,8.71
2023-04-16T19:11:16.969Z,8.74
2023-04-16T19:13:46.249Z,8.70
2023-04-16T19:16:14.441Z,8.66
2023-04-16T19:18:42.380Z,8.80
2023-04-16T19:21:10.887Z,8.75
2023-04-16T19:23:38.959Z,8.69
2023-04-16T19:26:06.947Z,8.73
2023-04-16T19:28:35.001Z,8.77
2023-04-16T19:31:04.300Z,8.66
2023-04-16T19:33:32.315Z,8.81
2023-04-16T19:36:00.336Z,8.79
2023-04-16T19:38:28.336Z,8.62
2023-04-16T19:40:56.293Z,8.50
2023-04-16T19:43:24.563Z,8.57
2023-04-16T19:45:53.449Z,8.68
2023-04-16T19:48:23.267Z,8.68
2023-04-16T19:50:51.260Z,8.58
2023-04-16T19:53:19.211Z,8.48
2023-04-16T19:55:47.194Z,8.64
2023-04-16T19:58:15.197Z,8.69
2023-04-16T20:00:43.527Z,8.56
2023-04-16T20:03:13.701Z,8.46
2023-04-16T20:05:44.497Z,8.50
2023-04-16T20:08:18.458Z,8.31
2023-04-16T20:10:46.570Z,8.28
2023-04-16T20:13:15.564Z,8.39
2023-04-16T20:15:44.672Z,8.42
2023-04-16T20:18:13.536Z,8.44
2023-04-16T20:20:42.890Z,8.45
2023-04-16T20:23:12.919Z,8.47
2023-04-16T20:25:42.685Z,8.29
2023-04-16T20:28:10.886Z,8.15
2023-04-16T20:30:39.773Z,8.20
2023-04-16T20:33:08.148Z,8.07
2023-04-16T20:35:36.303Z,8.23
2023-04-16T20:38:05.691Z,8.11
2023-04-16T20:40:34.095Z,8.19
2023-04-16T20:43:02.053Z,8.14
2023-04-16T20:45:32.112Z,7.98
2023-04-16T20:48:00.403Z,7.94
2023-04-16T20:50:28.802Z,8.07
2023-04-16T20:52:56.902Z,8.09
2023-04-16T20:55:26.542Z,8.08
2023-04-16T20:57:54.459Z,7.96
2023-04-16T21:00:24.395Z,8.00
2023-04-16T21:02:52.457Z,8.00
2023-04-16T21:05:21.309Z,8.04
2023-04-16T21:07:49.227Z,8.02
2023-04-16T21:10:20.031Z,7.88
2023-04-16T21:12:49.430Z,7.85
2023-04-16T21:15:17.469Z,8.03
2023-04-16T21:17:45.429Z,7.89
2023-04-16T21:20:14.093Z,7.75
2023-04-16T21:22:42.157Z,7.77
2023-04-16T21:25:14.776Z,7.73
2023-04-16T21:27:42.777Z,7.86
2023-04-16T21:30:13.724Z,7.69
2023-04-16T21:32:41.687Z,7.76
2023-04-16T21:35:10.403Z,7.76
2023-04-16T21:37:38.466Z,7.72
2023-04-16T21:40:08.778Z,7.70
2023-04-16T21:42:39.776Z,7.79
2023-04-16T21:45:09.499Z,7.70
2023-04-16T21:47:39.043Z,7.63
2023-04-16T21:50:08.039Z,7.49
2023-04-16T21:52:40.094Z,7.61
2023-04-16T21:55:10.017Z,7.61
2023-04-16T21:57:37.904Z,7.61
2023-04-16T22:00:09.040Z,7.57
2023-04-16T22:02:38.306Z,7.46
2023-04-16T22:05:07.851Z,7.49
2023-04-16T22:07:36.582Z,7.40
2023-04-16T22:10:04.695Z,7.47
2023-04-16T22:12:32.643Z,7.52
2023-04-16T22:15:02.848Z,7.54
2023-04-16T22:17:31.539Z,7.42
2023-04-16T22:20:00.957Z,7.49
2023-04-16T22:22:28.839Z,7.48
2023-04-16T22:24:56.785Z,7.43
2023-04-16T22:27:24.699Z,7.39
2023-04-16T22:29:52.724Z,7.36
2023-04-16T22:32:20.674Z,7.29
2023-04-16T22:34:48.708Z,7.31
2023-04-16T22:37:17.988Z,7.39
2023-04-16T22:39:46.032Z,7.44
2023-04-16T22:42:13.986Z,7.34
2023-04-16T22:44:41.928Z,7.28
2023-04-16T22:47:09.849Z,7.19
2023-04-16T22:49:37.803Z,7.19
2023-04-16T22:52:06.074Z,7.14
2023-04-16T22:54:35.396Z,7.08
2023-04-16T22:57:03.344Z,7.09
2023-04-16T22:59:31.544Z,7.10
2023-04-16T23:02:02.399Z,7.15
2023-04-16T23:04:30.459Z,7.03
2023-04-16T23:06:58.383Z,7.16
2023-04-16T23:09:26.637Z,7.15
2023-04-16T23:11:56.160Z,7.09
2023-04-16T23:14:26.160Z,7.12
2023-04-16T23:16:54.025Z,7.08
2023-04-16T23:19:22.042Z,7.28
2023-04-16T23:21:49.979Z,7.19
2023-04-16T23:24:18.009Z,7.22
2023-04-16T23:26:45.871Z,7.19
2023-04-16T23:29:15.117Z,7.09
2023-04-16T23:31:43.214Z,7.05
2023-04-16T23:34:11.214Z,6.96
2023-04-16T23:36:42.259Z,7.18
2023-04-16T23:39:10.523Z,7.33
2023-04-16T23:41:38.844Z,7.32
2023-04-16T23:44:06.816Z,7.19
2023-04-16T23:46:36.236Z,7.17
2023-04-16T23:49:04.556Z,7.13
2023-04-16T23:51:32.594Z,7.13
2023-04-16T23:54:00.490Z,7.17
2023-04-16T23:56:28.378Z,7.23
2023-04-16T23:58:56.390Z,7.35
